Akron, Michigan
Current Conditions -  °F | °C
As of 3:35 AM on Friday 31 Oct 2014 (Local Time) from KCFS Reporting Station
Light Rain Light Rain  
Wind Chill: 42°   Ceiling: 4300
Heat Index: 42°   Visibility: 7mi
Dew Point: 39°   Wind: 0mph
Humidity: 89%   Direction: NA
Pressure: 29.92"   Gusts: NA
Location:  43.57°N, 83.51°W
Report Text: KCFS 310735Z AUTO 00000KT 7SM -RA SCT032 BKN043 OVC049 06/04 A2992 RMK AO2 T00550038
Loading
Personal Weather Stations






























Interactive Weather Map
Tropical Storm Tracking
New forecast layout! Learn more

10-Day Weather Forecast

Advertisements
Track Severe Weather on mobile